createdAt,value
2022-12-27T00:00:14.682Z,11.25
2022-12-27T00:02:45.299Z,9.48
2022-12-27T00:05:15.426Z,11.30
2022-12-27T00:07:44.538Z,12.07
2022-12-27T00:10:13.238Z,10.68
2022-12-27T00:12:42.102Z,12.85
2022-12-27T00:15:10.700Z,12.35
2022-12-27T00:17:42.195Z,9.30
2022-12-27T00:20:12.109Z,11.93
2022-12-27T00:22:41.140Z,11.35
2022-12-27T00:25:10.222Z,9.13
2022-12-27T00:27:39.316Z,10.45
2022-12-27T00:30:11.204Z,11.85
2022-12-27T00:32:41.480Z,9.88
2022-12-27T00:35:10.952Z,8.78
2022-12-27T00:37:39.902Z,11.28
2022-12-27T00:40:10.677Z,10.20
2022-12-27T00:42:40.584Z,8.33
2022-12-27T00:45:11.174Z,9.05
2022-12-27T00:47:40.189Z,9.18
2022-12-27T00:50:10.214Z,9.65
2022-12-27T00:52:39.325Z,9.45
2022-12-27T00:55:09.981Z,8.78
2022-12-27T00:57:40.527Z,10.38
2022-12-27T01:00:12.177Z,9.23
2022-12-27T01:02:41.646Z,8.28
2022-12-27T01:05:12.466Z,9.25
2022-12-27T01:07:42.897Z,8.75
2022-12-27T01:10:12.630Z,9.03
2022-12-27T01:12:42.024Z,8.28
2022-12-27T01:15:12.216Z,9.50
2022-12-27T01:17:42.369Z,9.15
2022-12-27T01:20:11.769Z,9.88
2022-12-27T01:22:41.501Z,8.80
2022-12-27T01:25:10.850Z,8.70
2022-12-27T01:27:41.713Z,7.72
2022-12-27T01:30:12.441Z,9.63
2022-12-27T01:32:43.762Z,7.37
2022-12-27T01:35:13.229Z,8.38
2022-12-27T01:37:43.292Z,8.75
2022-12-27T01:40:12.745Z,8.63
2022-12-27T01:42:52.547Z,8.48
2022-12-27T01:45:28.423Z,8.85
2022-12-27T01:48:08.296Z,6.63
2022-12-27T01:50:46.234Z,8.25
2022-12-27T01:53:28.898Z,10.38
2022-12-27T01:56:02.689Z,9.58
2022-12-27T01:58:43.129Z,10.45
2022-12-27T02:01:21.875Z,8.75
2022-12-27T02:03:56.764Z,9.38
2022-12-27T02:06:28.389Z,15.20
2022-12-27T02:09:29.336Z,11.20
2022-12-27T02:11:58.350Z,12.40
2022-12-27T02:14:44.259Z,23.00
2022-12-27T02:17:19.152Z,29.57
2022-12-27T02:20:18.602Z,37.08
2022-12-27T02:23:39.418Z,35.85
2022-12-27T02:26:21.923Z,35.45
2022-12-27T02:29:27.557Z,34.83
2022-12-27T02:32:05.872Z,37.50
2022-12-27T02:37:17.591Z,35.95
2022-12-27T02:39:47.728Z,42.85
2022-12-27T02:42:35.715Z,45.58
2022-12-27T02:45:27.070Z,44.30
2022-12-27T02:48:14.496Z,48.60
2022-12-27T02:51:06.971Z,39.90
2022-12-27T02:53:47.814Z,46.95
2022-12-27T02:56:47.388Z,45.90
2022-12-27T03:00:18.454Z,47.23
2022-12-27T03:03:23.470Z,44.98
2022-12-27T03:06:41.522Z,48.05
2022-12-27T03:10:10.830Z,53.35
2022-12-27T03:13:40.437Z,46.85
2022-12-27T03:16:23.997Z,51.63
2022-12-27T03:19:10.693Z,47.30
2022-12-27T03:24:54.646Z,51.92
2022-12-27T03:27:33.547Z,52.90
2022-12-27T03:30:24.598Z,52.65
2022-12-27T03:33:15.411Z,56.02
2022-12-27T03:36:26.476Z,58.48
2022-12-27T03:39:21.850Z,58.02
2022-12-27T03:42:17.277Z,58.33
2022-12-27T03:44:46.736Z,60.17
2022-12-27T03:47:45.706Z,61.53
2022-12-27T03:50:21.284Z,57.83
2022-12-27T03:53:12.594Z,58.25
2022-12-27T03:55:42.228Z,64.55
2022-12-27T03:58:10.820Z,66.87
2022-12-27T04:00:40.182Z,65.12
2022-12-27T04:03:09.078Z,56.37
2022-12-27T04:05:39.302Z,65.55
2022-12-27T04:08:26.923Z,59.08
2022-12-27T04:14:02.391Z,68.85
2022-12-27T04:16:50.130Z,68.83
2022-12-27T04:19:37.347Z,73.05
2022-12-27T04:22:25.466Z,63.38
2022-12-27T04:25:14.348Z,68.33
2022-12-27T04:28:02.182Z,65.55
2022-12-27T04:30:49.619Z,70.42
2022-12-27T04:33:37.257Z,70.92
2022-12-27T04:36:08.003Z,75.15
2022-12-27T04:38:37.046Z,71.70
2022-12-27T04:41:24.549Z,74.20
2022-12-27T04:47:00.336Z,87.08
2022-12-27T04:52:38.302Z,83.10
2022-12-27T04:55:24.601Z,96.97
2022-12-27T04:57:53.939Z,87.80
2022-12-27T05:00:43.327Z,96.00
2022-12-27T05:03:18.513Z,90.92
2022-12-27T05:05:47.537Z,91.22
2022-12-27T05:08:37.062Z,88.72
2022-12-27T05:11:24.888Z,85.57
2022-12-27T05:16:39.215Z,71.57
2022-12-27T05:19:10.992Z,85.77
2022-12-27T05:21:47.117Z,92.67
2022-12-27T05:24:34.872Z,99.90
2022-12-27T05:27:04.418Z,93.72
2022-12-27T05:29:35.302Z,117.77
2022-12-27T05:32:09.495Z,98.52
2022-12-27T05:34:37.017Z,99.85
2022-12-27T05:37:06.185Z,99.67
2022-12-27T05:39:37.528Z,88.40
2022-12-27T05:42:06.876Z,84.95
2022-12-27T05:44:36.643Z,86.60
2022-12-27T05:47:05.589Z,87.65
2022-12-27T05:49:35.196Z,81.82
2022-12-27T05:52:05.730Z,87.12
2022-12-27T05:54:35.008Z,84.25
2022-12-27T05:57:04.578Z,104.25
2022-12-27T05:59:35.503Z,89.85
2022-12-27T06:02:05.576Z,92.10
2022-12-27T06:04:34.854Z,102.85
2022-12-27T06:07:04.504Z,90.47
2022-12-27T06:09:34.414Z,90.92
2022-12-27T06:12:04.392Z,118.05
2022-12-27T06:14:34.494Z,98.87
2022-12-27T06:17:05.492Z,92.70
2022-12-27T06:19:34.992Z,92.95
2022-12-27T06:22:04.100Z,93.45
2022-12-27T06:24:35.643Z,91.82
2022-12-27T06:27:05.124Z,81.78
2022-12-27T06:29:34.454Z,81.60
2022-12-27T06:32:04.840Z,82.12
2022-12-27T06:34:35.983Z,85.92
2022-12-27T06:37:05.613Z,77.10
2022-12-27T06:39:35.314Z,85.28
2022-12-27T06:42:05.565Z,79.82
2022-12-27T06:44:35.153Z,101.75
2022-12-27T06:47:04.601Z,87.62
2022-12-27T06:49:40.203Z,88.15
2022-12-27T06:52:12.276Z,91.15
2022-12-27T06:54:49.895Z,90.00
2022-12-27T06:57:20.684Z,83.50
2022-12-27T06:59:53.964Z,96.10
2022-12-27T07:02:22.592Z,93.75
2022-12-27T07:04:52.513Z,99.10
2022-12-27T07:07:21.941Z,94.97
2022-12-27T07:09:51.038Z,90.30
2022-12-27T07:12:20.088Z,92.42
2022-12-27T07:14:49.920Z,94.40
2022-12-27T07:17:19.080Z,90.62
2022-12-27T07:19:48.502Z,93.52
2022-12-27T07:22:17.722Z,101.25
2022-12-27T07:24:48.849Z,100.72
2022-12-27T07:27:17.738Z,96.92
2022-12-27T07:29:49.038Z,94.58
2022-12-27T07:32:19.185Z,92.17
2022-12-27T07:34:47.973Z,90.60
2022-12-27T07:37:18.147Z,100.90
2022-12-27T07:39:48.106Z,102.53
2022-12-27T07:42:17.859Z,112.12
2022-12-27T07:44:47.598Z,107.55
2022-12-27T07:47:16.558Z,108.42
2022-12-27T07:49:45.952Z,104.10
2022-12-27T07:52:15.244Z,114.90
2022-12-27T07:54:45.838Z,112.37
2022-12-27T07:57:15.291Z,105.70
2022-12-27T07:59:44.811Z,108.05
2022-12-27T08:02:16.258Z,119.60
2022-12-27T08:04:45.127Z,110.48
2022-12-27T08:07:17.964Z,107.97
2022-12-27T08:09:48.131Z,111.35
2022-12-27T08:12:18.075Z,104.00
2022-12-27T08:14:47.767Z,105.07
2022-12-27T08:17:26.949Z,102.75
2022-12-27T08:19:56.805Z,102.40
2022-12-27T08:22:25.755Z,93.50
2022-12-27T08:24:56.258Z,96.02
2022-12-27T08:27:25.576Z,97.65
2022-12-27T08:29:55.202Z,99.47
2022-12-27T08:32:24.847Z,98.15
2022-12-27T08:34:54.618Z,91.35
2022-12-27T08:37:24.068Z,106.17
2022-12-27T08:39:57.801Z,88.05
2022-12-27T08:42:25.751Z,91.37
2022-12-27T08:44:55.107Z,95.53
2022-12-27T08:47:25.788Z,92.17
2022-12-27T08:49:58.077Z,98.35
2022-12-27T08:52:27.023Z,93.70
2022-12-27T08:54:55.639Z,92.12
2022-12-27T08:57:25.117Z,91.30
2022-12-27T08:59:54.666Z,97.25
2022-12-27T09:02:24.327Z,96.37
2022-12-27T09:04:55.605Z,87.90
2022-12-27T09:07:24.514Z,85.67
2022-12-27T09:09:53.619Z,76.50
2022-12-27T09:12:22.701Z,93.80
2022-12-27T09:14:51.724Z,91.75
2022-12-27T09:17:21.206Z,108.10
2022-12-27T09:19:51.181Z,124.87
2022-12-27T09:22:21.566Z,128.87
2022-12-27T09:24:50.975Z,113.55
2022-12-27T09:27:20.751Z,119.97
2022-12-27T09:29:49.865Z,94.17
2022-12-27T09:32:19.811Z,112.22
2022-12-27T09:34:50.047Z,102.67
2022-12-27T09:37:19.774Z,107.03
2022-12-27T09:39:50.048Z,103.45
2022-12-27T09:43:07.274Z,99.42
2022-12-27T09:45:20.854Z,101.35
2022-12-27T09:48:09.502Z,104.78
2022-12-27T09:50:55.315Z,114.50
2022-12-27T09:53:35.679Z,95.03
2022-12-27T09:56:05.430Z,98.25
2022-12-27T09:58:46.831Z,94.70
2022-12-27T10:01:32.261Z,97.72
2022-12-27T10:04:03.411Z,116.95
2022-12-27T10:06:57.191Z,96.17
2022-12-27T10:09:53.461Z,101.53
2022-12-27T10:12:55.365Z,94.05
2022-12-27T10:15:38.607Z,108.17
2022-12-27T10:18:45.666Z,85.75
2022-12-27T10:21:23.489Z,95.05
2022-12-27T10:24:18.903Z,102.05
2022-12-27T10:26:47.501Z,92.37
2022-12-27T10:29:21.592Z,98.22
2022-12-27T10:31:50.355Z,98.62
2022-12-27T10:34:24.775Z,101.62
2022-12-27T10:36:53.755Z,88.78
2022-12-27T10:39:28.378Z,96.63
2022-12-27T10:42:38.619Z,95.20
2022-12-27T10:45:33.995Z,86.80
2022-12-27T10:48:19.859Z,80.53
2022-12-27T10:51:03.798Z,79.45
2022-12-27T10:53:49.495Z,88.90
2022-12-27T10:56:28.993Z,85.22
2022-12-27T10:59:31.188Z,79.72
2022-12-27T11:02:17.521Z,92.82
2022-12-27T11:05:00.085Z,92.67
2022-12-27T11:07:31.845Z,85.05
2022-12-27T11:10:15.876Z,94.77
2022-12-27T11:13:05.037Z,86.35
2022-12-27T11:15:37.551Z,82.70
2022-12-27T11:18:18.469Z,88.60
2022-12-27T11:20:54.691Z,84.37
2022-12-27T11:23:35.825Z,87.40
2022-12-27T11:26:06.779Z,81.22
2022-12-27T11:28:46.058Z,101.55
2022-12-27T11:31:20.370Z,80.60
2022-12-27T11:33:53.640Z,100.47
2022-12-27T11:36:41.780Z,93.35
2022-12-27T11:39:46.094Z,94.22
2022-12-27T11:42:35.869Z,106.27
2022-12-27T11:45:28.120Z,98.85
2022-12-27T11:48:08.008Z,89.72
2022-12-27T11:51:03.948Z,100.27
2022-12-27T11:54:16.518Z,94.60
2022-12-27T11:56:50.835Z,90.50
2022-12-27T11:59:41.094Z,101.58
2022-12-27T12:02:39.990Z,100.27
2022-12-27T12:05:32.653Z,104.67
2022-12-27T12:08:31.384Z,91.30
2022-12-27T12:11:28.708Z,97.17
2022-12-27T12:14:18.233Z,93.77
2022-12-27T12:17:07.848Z,90.67
2022-12-27T12:20:13.592Z,79.05
2022-12-27T12:23:09.286Z,89.83
2022-12-27T12:26:01.571Z,84.20
2022-12-27T12:29:03.114Z,77.20
2022-12-27T12:32:22.768Z,82.97
2022-12-27T12:35:35.623Z,80.07
2022-12-27T12:38:23.979Z,87.25
2022-12-27T12:41:21.301Z,75.80
2022-12-27T12:44:12.318Z,85.75
2022-12-27T12:47:07.927Z,95.85
2022-12-27T12:49:45.071Z,98.82
2022-12-27T12:52:32.505Z,101.40
2022-12-27T12:55:24.369Z,97.15
2022-12-27T12:58:34.122Z,91.95
2022-12-27T13:01:35.865Z,89.17
2022-12-27T13:04:39.346Z,97.62
2022-12-27T13:07:45.557Z,90.87
2022-12-27T13:10:41.602Z,86.78
2022-12-27T13:13:40.205Z,76.53
2022-12-27T13:16:52.321Z,81.28
2022-12-27T16:42:00.360Z,17.15
2022-12-27T16:44:59.378Z,5.15
2022-12-27T16:47:57.112Z,6.92
2022-12-27T16:50:47.063Z,9.13
2022-12-27T16:53:38.552Z,6.30
2022-12-27T16:56:29.588Z,9.55
2022-12-27T16:58:58.498Z,10.45
2022-12-27T17:01:38.141Z,10.85
2022-12-27T17:04:08.037Z,8.55
2022-12-27T17:06:42.715Z,6.50
2022-12-27T17:09:16.982Z,9.28
2022-12-27T17:11:55.367Z,8.98
2022-12-27T17:14:30.525Z,5.47
2022-12-27T17:17:10.996Z,6.08
2022-12-27T17:19:53.999Z,8.43
2022-12-27T17:22:30.450Z,3.72
2022-12-27T17:24:58.903Z,3.85
2022-12-27T17:27:49.749Z,7.15
2022-12-27T17:30:22.045Z,5.80
2022-12-27T17:32:57.718Z,9.10
2022-12-27T17:35:53.148Z,6.83
2022-12-27T17:38:42.899Z,5.72
2022-12-27T17:41:53.719Z,7.95
2022-12-27T17:44:46.964Z,13.18
2022-12-27T17:47:41.807Z,9.33
2022-12-27T17:50:15.519Z,9.58
2022-12-27T17:53:31.706Z,11.35
2022-12-27T17:56:24.241Z,13.43
2022-12-27T17:58:58.096Z,9.95
2022-12-27T18:01:25.173Z,8.93
2022-12-27T18:03:54.710Z,12.82
2022-12-27T18:06:23.510Z,12.37
2022-12-27T18:08:54.328Z,12.68
2022-12-27T18:11:27.868Z,19.75
2022-12-27T18:13:54.857Z,14.70
2022-12-27T18:16:37.857Z,12.03
2022-12-27T18:19:07.687Z,15.08
2022-12-27T18:21:38.616Z,15.35
2022-12-27T18:24:28.359Z,12.93
2022-12-27T18:27:04.652Z,13.38
2022-12-27T18:29:33.966Z,18.27
2022-12-27T18:32:05.093Z,9.63
2022-12-27T18:34:57.429Z,12.82
2022-12-27T18:37:27.168Z,14.40
2022-12-27T18:40:00.358Z,13.00
2022-12-27T18:42:36.744Z,18.95
2022-12-27T18:45:28.874Z,15.87
2022-12-27T18:48:04.669Z,17.45
2022-12-27T18:50:34.639Z,22.70
2022-12-27T18:53:08.065Z,16.60
2022-12-27T18:55:38.356Z,18.17
2022-12-27T18:58:20.843Z,15.10
2022-12-27T19:01:21.470Z,11.08
2022-12-27T19:04:19.089Z,15.35
2022-12-27T19:07:07.665Z,18.77
2022-12-27T19:09:46.595Z,14.38
2022-12-27T19:12:33.507Z,11.43
2022-12-27T19:15:02.103Z,13.53
2022-12-27T19:17:32.367Z,10.72
2022-12-27T19:20:03.619Z,15.48
2022-12-27T19:22:56.618Z,11.63
2022-12-27T19:25:30.049Z,11.88
2022-12-27T19:28:14.024Z,14.40
2022-12-27T19:30:46.947Z,11.57
2022-12-27T19:33:28.388Z,13.62
2022-12-27T19:35:57.234Z,8.83
2022-12-27T19:38:28.303Z,15.40
2022-12-27T19:41:03.311Z,20.25
2022-12-27T19:43:36.253Z,10.20
2022-12-27T19:46:05.579Z,16.02
2022-12-27T19:48:35.101Z,10.00
2022-12-27T19:51:04.727Z,10.15
2022-12-27T19:53:41.341Z,14.53
2022-12-27T19:56:10.471Z,12.68
2022-12-27T19:58:40.028Z,13.18
2022-12-27T20:01:08.802Z,14.53
2022-12-27T20:03:37.613Z,10.08
2022-12-27T20:06:14.360Z,11.93
2022-12-27T20:08:43.245Z,9.08
2022-12-27T20:11:17.557Z,12.98
2022-12-27T20:13:46.434Z,10.93
2022-12-27T20:16:17.407Z,12.98
2022-12-27T20:18:46.922Z,12.20
2022-12-27T20:21:18.243Z,9.13
2022-12-27T20:23:47.404Z,11.97
2022-12-27T20:26:22.237Z,13.88
2022-12-27T20:28:53.131Z,13.83
2022-12-27T20:31:22.211Z,13.55
2022-12-27T20:33:52.377Z,15.28
2022-12-27T20:36:21.852Z,8.70
2022-12-27T20:38:51.054Z,13.80
2022-12-27T20:41:21.523Z,14.75
2022-12-27T20:43:58.170Z,16.62
2022-12-27T20:46:27.720Z,17.02
2022-12-27T20:48:57.918Z,13.58
2022-12-27T20:51:28.382Z,7.53
2022-12-27T20:53:58.990Z,12.63
2022-12-27T20:56:27.479Z,12.82
2022-12-27T20:58:57.376Z,10.13
2022-12-27T21:01:26.484Z,6.92
2022-12-27T21:03:56.619Z,8.35
2022-12-27T21:06:27.734Z,11.93
2022-12-27T21:08:58.234Z,9.00
2022-12-27T21:11:32.451Z,8.08
2022-12-27T21:14:03.810Z,5.75
2022-12-27T21:16:33.893Z,9.53
2022-12-27T21:19:04.551Z,8.98
2022-12-27T21:21:35.754Z,15.48
2022-12-27T21:24:06.432Z,11.48
2022-12-27T21:26:37.156Z,11.08
2022-12-27T21:29:09.040Z,8.70
2022-12-27T21:31:38.057Z,11.80
2022-12-27T21:34:08.683Z,11.97
2022-12-27T21:36:38.083Z,15.93
2022-12-27T21:39:08.615Z,9.15
2022-12-27T21:41:39.738Z,13.70
2022-12-27T21:44:10.463Z,10.35
2022-12-27T21:46:41.622Z,9.40
2022-12-27T21:49:12.816Z,12.70
2022-12-27T21:51:44.542Z,10.10
2022-12-27T21:54:14.499Z,10.50
2022-12-27T21:56:43.734Z,8.88
2022-12-27T21:59:13.523Z,9.53
2022-12-27T22:01:50.714Z,12.20
2022-12-27T22:04:15.411Z,9.48
2022-12-27T22:06:47.473Z,11.95
2022-12-27T22:09:18.614Z,17.45
2022-12-27T22:11:49.288Z,10.28
2022-12-27T22:14:23.346Z,11.40
2022-12-27T22:16:49.214Z,10.18
2022-12-27T22:19:18.489Z,9.43
2022-12-27T22:21:48.476Z,10.80
2022-12-27T22:24:20.257Z,8.18
2022-12-27T22:26:49.777Z,9.25
2022-12-27T22:29:18.701Z,10.05
2022-12-27T22:31:48.088Z,8.20
2022-12-27T22:34:17.485Z,6.33
2022-12-27T22:36:46.586Z,13.13
2022-12-27T22:39:16.053Z,8.10
2022-12-27T22:41:45.175Z,10.10
2022-12-27T22:44:14.855Z,9.88
2022-12-27T22:49:17.448Z,16.15
2022-12-27T22:51:47.001Z,14.98
2022-12-27T22:54:15.833Z,10.38
2022-12-27T22:56:44.871Z,8.43
2022-12-27T22:59:16.092Z,16.32
2022-12-27T23:01:45.654Z,9.50
2022-12-27T23:04:14.931Z,7.58
2022-12-27T23:06:45.056Z,17.23
2022-12-27T23:09:14.835Z,18.75
2022-12-27T23:11:44.053Z,12.93
2022-12-27T23:14:15.564Z,8.88
2022-12-27T23:16:46.954Z,14.73
2022-12-27T23:19:21.503Z,10.45
2022-12-27T23:21:50.918Z,15.08
2022-12-27T23:24:20.277Z,8.63
2022-12-27T23:26:49.528Z,10.70
2022-12-27T23:29:19.133Z,15.08
2022-12-27T23:31:55.162Z,11.70
2022-12-27T23:34:22.540Z,9.65
2022-12-27T23:36:50.525Z,16.77
2022-12-27T23:39:19.517Z,14.38
2022-12-27T23:41:48.619Z,13.62
2022-12-27T23:44:21.329Z,11.63
2022-12-27T23:46:47.980Z,8.10
2022-12-27T23:49:20.224Z,8.68
2022-12-27T23:51:51.513Z,11.78
2022-12-27T23:54:20.477Z,10.00
2022-12-27T23:56:49.163Z,8.38
2022-12-27T23:59:18.207Z,10.98
